Time;durP1;ratioP1;P1;durP2;ratioP2;P2;SDS_P1;SDS_P2;PMS_P1;PMS_P2;Temp;Humidity;BMP_temperature;BMP_pressure;BME280_temperature;BME280_humidity;BME280_pressure;Samples;Min_cycle;Max_cycle;Signal;HPM_P1;HPM_P2
2021/12/19 00:10:15;;;;;;;28.70;14.33;;;;;;;4.12;100.00;99660.39;4387321;81;28555;-83
2021/12/19 00:16:17;;;;;;;26.95;13.32;;;;;;;4.13;100.00;99667.86;4369360;81;28530;-81
2021/12/19 00:22:18;;;;;;;30.05;14.35;;;;;;;4.17;100.00;99673.17;4333978;81;28688;-82
2021/12/19 00:28:20;;;;;;;27.37;13.45;;;;;;;4.20;100.00;99658.19;4378808;81;28543;-82
2021/12/19 00:34:21;;;;;;;24.70;12.65;;;;;;;4.22;100.00;99660.16;4374336;81;28489;-81
2021/12/19 00:40:22;;;;;;;28.60;14.05;;;;;;;4.22;100.00;99644.68;4373887;81;28525;-82
2021/12/19 00:46:26;;;;;;;23.98;12.40;;;;;;;4.18;100.00;99645.03;4376568;81;28537;-82
2021/12/19 00:52:27;;;;;;;22.48;12.10;;;;;;;4.24;100.00;99647.50;4365171;81;28523;-82
2021/12/19 00:58:28;;;;;;;22.52;11.78;;;;;;;4.25;100.00;99638.51;4356129;81;28551;-80
2021/12/19 01:04:30;;;;;;;18.50;10.40;;;;;;;4.29;100.00;99629.67;4385508;81;28512;-79
2021/12/19 01:10:33;;;;;;;21.65;10.78;;;;;;;4.36;100.00;99630.64;4386552;81;28551;-80
2021/12/19 01:16:34;;;;;;;18.50;10.05;;;;;;;4.34;100.00;99610.03;4355456;81;28504;-81
2021/12/19 01:22:35;;;;;;;16.52;9.60;;;;;;;4.36;100.00;99612.00;4385063;81;28569;-80
2021/12/19 01:28:39;;;;;;;17.27;9.10;;;;;;;4.40;100.00;99578.69;4351408;81;28482;-79
2021/12/19 01:34:40;;;;;;;14.93;8.45;;;;;;;4.46;100.00;99559.84;4375164;80;28474;-81
2021/12/19 01:40:41;;;;;;;13.95;7.70;;;;;;;4.46;100.00;99544.70;4365854;81;28503;-82
2021/12/19 01:46:44;;;;;;;13.62;8.03;;;;;;;4.41;100.00;99535.59;4350007;81;28511;-82
2021/12/19 01:52:47;;;;;;;15.38;8.13;;;;;;;4.44;100.00;99519.25;4340852;81;28518;-81
2021/12/19 01:58:48;;;;;;;12.58;7.20;;;;;;;4.44;100.00;99501.95;4326522;82;28544;-83
2021/12/19 02:04:49;;;;;;;11.15;6.37;;;;;;;4.41;100.00;99491.14;4380434;81;28515;-82
2021/12/19 02:10:51;;;;;;;10.58;5.97;;;;;;;4.39;100.00;99474.53;4433002;80;28482;-83
2021/12/19 02:16:52;;;;;;;11.95;6.97;;;;;;;4.44;100.00;99477.98;4417240;80;28517;-81
2021/12/19 02:22:54;;;;;;;14.55;7.53;;;;;;;4.37;100.00;99479.21;4386463;81;28474;-79
2021/12/19 02:28:55;;;;;;;13.22;7.10;;;;;;;4.33;100.00;99481.40;4390770;81;28942;-81
2021/12/19 02:35:00;;;;;;;12.10;6.83;;;;;;;4.24;100.00;99473.16;4362512;81;28470;-79
2021/12/19 02:53:32;;;;;;;13.05;6.55;;;;;;;4.19;100.00;99422.31;4384619;81;28519;-76
2021/12/19 02:59:33;;;;;;;11.40;6.75;;;;;;;4.18;100.00;99384.20;4387453;81;28561;-76
2021/12/19 03:05:37;;;;;;;10.03;5.97;;;;;;;4.12;100.00;99368.14;4385312;81;28511;-78
2021/12/19 03:18:00;;;;;;;10.50;5.17;;;;;;;4.13;100.00;99377.77;4371124;81;28555;-78
2021/12/19 03:24:03;;;;;;;8.90;5.30;;;;;;;4.22;100.00;99354.07;4370667;81;28571;-75
2021/12/19 03:30:06;;;;;;;8.50;4.75;;;;;;;4.24;100.00;99333.94;4360451;81;28520;-77
2021/12/19 03:36:08;;;;;;;9.78;4.92;;;;;;;4.25;100.00;99316.95;4375239;80;28521;-79
2021/12/19 03:42:09;;;;;;;8.98;5.12;;;;;;;4.25;100.00;99285.02;4359216;81;28496;-79
2021/12/19 03:48:12;;;;;;;8.98;5.22;;;;;;;4.24;100.00;99287.36;4354748;81;28475;-78
2021/12/19 03:54:16;;;;;;;9.65;5.30;;;;;;;4.26;100.00;99261.37;4371368;81;28490;-77
2021/12/19 04:00:26;;;;;;;10.90;5.25;;;;;;;4.27;100.00;99252.38;4337268;81;28488;-76
2021/12/19 04:06:27;;;;;;;9.13;5.03;;;;;;;4.31;100.00;99258.97;4363774;80;28475;-77
2021/12/19 04:12:30;;;;;;;7.80;4.78;;;;;;;4.31;100.00;99246.99;4373602;81;28472;-77
2021/12/19 04:18:31;;;;;;;8.83;4.40;;;;;;;4.34;100.00;99233.34;4374518;81;28488;-78
2021/12/19 04:24:33;;;;;;;9.35;4.50;;;;;;;4.43;100.00;99223.40;4373675;81;28559;-76
2021/12/19 04:30:34;;;;;;;9.50;5.40;;;;;;;4.50;100.00;99223.47;4290883;83;28551;-76
2021/12/19 04:36:40;;;;;;;8.45;4.85;;;;;;;4.46;100.00;99204.38;4327023;82;28504;-76
2021/12/19 04:43:44;;;;;;;8.40;4.33;;;;;;;4.46;100.00;99194.56;4296316;82;28476;-79
2021/12/19 05:01:54;;;;;;;6.00;3.72;;;;;;;4.50;100.00;99147.09;4299700;81;28451;-80
2021/12/19 05:20:17;;;;;;;5.55;3.08;;;;;;;4.59;100.00;99176.59;4344347;82;28539;-79
2021/12/19 05:26:16;;;;;;;;;;;;;;;4.62;100.00;99169.23;4372110;81;28539;-79
2021/12/19 05:32:17;;;;;;;7.20;3.70;;;;;;;4.63;100.00;99154.89;4369673;81;20203;-79
2021/12/19 05:50:52;;;;;;;6.80;3.90;;;;;;;4.54;100.00;99124.91;4426174;80;28551;-80
2021/12/19 05:56:53;;;;;;;7.10;3.42;;;;;;;4.53;100.00;99129.89;4418612;80;28491;-81
2021/12/19 06:02:54;;;;;;;8.18;4.35;;;;;;;4.57;100.00;99123.19;4388968;80;28485;-80
2021/12/19 06:08:55;;;;;;;7.85;4.62;;;;;;;4.57;100.00;99124.00;4394196;80;28500;-80
2021/12/19 06:14:57;;;;;;;6.72;4.03;;;;;;;4.61;100.00;99116.46;4392508;80;28470;-79
2021/12/19 06:20:58;;;;;;;7.28;4.17;;;;;;;4.68;100.00;99130.67;4348824;81;28567;-80
2021/12/19 06:27:01;;;;;;;10.70;5.20;;;;;;;4.73;100.00;99115.45;4398965;80;28474;-81
2021/12/19 06:33:03;;;;;;;7.85;4.62;;;;;;;4.77;100.00;99094.06;4432173;80;28487;-80
2021/12/19 06:39:04;;;;;;;6.50;3.92;;;;;;;4.76;100.00;99084.43;4326869;81;28520;-79
2021/12/19 06:45:07;;;;;;;9.58;4.78;;;;;;;4.84;100.00;99092.79;4389907;80;28553;-79
2021/12/19 06:51:08;;;;;;;7.22;4.37;;;;;;;4.90;100.00;99081.90;4369283;81;28462;-80
2021/12/19 06:57:09;;;;;;;8.50;4.65;;;;;;;4.90;100.00;99073.91;4356837;82;28557;-78
2021/12/19 07:03:11;;;;;;;6.33;3.77;;;;;;;4.90;100.00;99073.38;4308681;81;28503;-80
2021/12/19 07:09:13;;;;;;;6.58;4.30;;;;;;;4.97;100.00;99054.28;4389860;80;28509;-80
2021/12/19 07:15:15;;;;;;;8.30;4.55;;;;;;;5.00;100.00;99062.41;4359929;81;28543;-81
2021/12/19 07:21:16;;;;;;;7.80;4.20;;;;;;;4.91;100.00;99055.04;4369220;81;28949;-76
2021/12/19 07:27:17;;;;;;;7.92;4.97;;;;;;;4.93;100.00;99033.02;4390309;81;28454;-76
2021/12/19 07:33:19;;;;;;;8.05;4.80;;;;;;;5.00;100.00;99023.77;4368106;81;28895;-80
2021/12/19 07:39:37;;;;;;;8.98;4.35;;;;;;;4.95;100.00;99040.83;4330777;81;28464;-79
2021/12/19 07:45:26;;;;;;;;;;;;;;;4.99;100.00;99024.75;4330607;81;28494;-83
2021/12/19 07:51:29;;;;;;;7.30;4.28;;;;;;;4.98;100.00;99029.77;4333616;81;20201;-79
2021/12/19 07:57:31;;;;;;;7.78;4.25;;;;;;;4.97;100.00;99035.63;4343865;80;28528;-78
2021/12/19 08:03:32;;;;;;;10.58;5.37;;;;;;;4.95;100.00;99068.31;4310866;81;28519;-78
2021/12/19 08:09:39;;;;;;;11.08;5.55;;;;;;;4.96;100.00;99072.62;4338783;81;28546;-79
2021/12/19 08:15:39;;;;;;;7.67;5.03;;;;;;;4.95;100.00;99068.31;4410456;80;28497;-78
2021/12/19 08:21:41;;;;;;;9.75;5.78;;;;;;;4.88;100.00;99072.23;4340752;81;28542;-80
2021/12/19 08:27:43;;;;;;;9.90;5.90;;;;;;;4.82;100.00;99071.69;4361023;80;28517;-79
2021/12/19 08:33:44;;;;;;;10.53;5.92;;;;;;;4.87;100.00;99080.44;4407821;79;29010;-76
2021/12/19 08:39:46;;;;;;;12.75;6.47;;;;;;;4.82;100.00;99082.84;4371610;79;28528;-74
2021/12/19 08:45:48;;;;;;;12.47;6.92;;;;;;;4.97;100.00;99081.42;4325275;81;28557;-76
2021/12/19 08:51:50;;;;;;;10.00;5.97;;;;;;;5.02;100.00;99079.81;4347547;81;28514;-75
2021/12/19 08:57:51;;;;;;;11.25;5.28;;;;;;;5.14;100.00;99079.28;4354737;82;28506;-76
2021/12/19 09:03:52;;;;;;;10.88;5.70;;;;;;;5.25;100.00;99072.60;4362357;81;28480;-76
2021/12/19 09:09:54;;;;;;;11.35;5.85;;;;;;;5.38;100.00;99072.67;4386295;80;28485;-75
2021/12/19 09:15:55;;;;;;;11.48;6.40;;;;;;;5.44;100.00;99051.06;4416979;79;28561;-77
2021/12/19 09:21:57;;;;;;;8.98;5.47;;;;;;;5.51;100.00;99048.42;4348629;81;28494;-74
2021/12/19 09:27:58;;;;;;;10.38;5.28;;;;;;;5.50;100.00;99026.28;4369294;81;28460;-75
2021/12/19 09:33:59;;;;;;;13.08;6.20;;;;;;;5.61;100.00;99016.88;4366371;81;28488;-76
2021/12/19 09:40:05;;;;;;;11.50;6.85;;;;;;;5.63;100.00;99021.52;4414405;80;28521;-76
2021/12/19 09:46:16;;;;;;;10.00;6.77;;;;;;;5.63;100.00;99017.53;4387968;80;28537;-75
2021/12/19 09:52:17;;;;;;;12.43;6.10;;;;;;;5.53;100.00;99012.55;4434711;79;28443;-75
2021/12/19 09:58:18;;;;;;;9.83;5.00;;;;;;;5.58;100.00;98995.45;4315277;81;28530;-75
2021/12/19 10:04:41;;;;;;;11.57;6.15;;;;;;;5.48;100.00;99006.16;4369447;81;28556;-75
2021/12/19 10:10:56;;;;;;;11.80;7.25;;;;;;;5.52;100.00;98992.73;4356384;81;28594;-74
2021/12/19 10:16:48;;;;;;;12.80;6.67;;;;;;;5.49;100.00;98984.64;4351593;81;47979;-75
2021/12/19 10:22:49;;;;;;;9.33;5.90;;;;;;;5.65;100.00;98976.80;4437245;80;28564;-75
2021/12/19 10:28:57;;;;;;;11.20;6.78;;;;;;;5.74;100.00;98959.28;4416831;80;28630;-76
2021/12/19 10:35:19;;;;;;;13.60;6.78;;;;;;;5.80;100.00;98941.12;4437812;80;28462;-75
2021/12/19 10:41:30;;;;;;;12.00;5.10;;;;;;;5.85;100.00;98930.14;4434930;80;28582;-75
2021/12/19 10:47:28;;;;;;;7.80;4.03;;;;;;;5.75;100.00;98912.91;4436553;80;28537;-76
2021/12/19 10:53:44;;;;;;;6.55;3.83;;;;;;;5.78;100.00;98906.66;4437496;80;28443;-75
2021/12/19 10:59:48;;;;;;;8.73;4.83;;;;;;;5.89;100.00;98897.73;4437868;80;28529;-75
2021/12/19 11:05:49;;;;;;;8.18;4.70;;;;;;;5.72;100.00;98884.25;4436433;80;28517;-76
2021/12/19 11:12:00;;;;;;;7.03;3.70;;;;;;;5.83;100.00;98886.01;4429810;79;28506;-74
2021/12/19 11:18:02;;;;;;;5.70;3.58;;;;;;;5.94;100.00;98873.92;4315188;82;28512;-75
2021/12/19 11:24:11;;;;;;;7.58;4.17;;;;;;;5.68;100.00;98860.35;4364697;81;28538;-76
2021/12/19 11:30:14;;;;;;;7.53;3.37;;;;;;;5.58;100.00;98858.59;4360592;81;28507;-75
2021/12/19 11:36:19;;;;;;;6.85;3.37;;;;;;;5.85;100.00;98853.30;4386851;81;28526;-74
2021/12/19 11:42:31;;;;;;;7.00;4.65;;;;;;;5.87;100.00;98839.23;4347674;81;28479;-78
2021/12/19 11:48:50;;;;;;;7.58;3.90;;;;;;;5.81;100.00;98834.70;4374621;79;28563;-72
2021/12/19 11:55:26;;;;;;;5.33;2.92;;;;;;;5.93;100.00;98819.71;4322963;81;28527;-76
2021/12/19 12:01:31;;;;;;;4.00;1.90;;;;;;;5.93;100.00;98806.37;4360548;81;28535;-76
2021/12/19 12:15:05;;;;;;;4.15;2.02;;;;;;;5.86;100.00;98814.38;4228168;81;28589;-76
2021/12/19 12:27:42;;;;;;;4.10;2.60;;;;;;;5.80;100.00;98793.05;4310235;82;28513;-77
2021/12/19 12:33:44;;;;;;;6.83;3.95;;;;;;;5.82;100.00;98784.31;4310446;82;28492;-75
2021/12/19 12:39:46;;;;;;;5.95;3.85;;;;;;;5.85;100.00;98771.92;4312187;80;28565;-75
2021/12/19 12:45:57;;;;;;;7.00;3.75;;;;;;;5.72;100.00;98758.06;4263230;80;28481;-78
2021/12/19 12:52:04;;;;;;;8.18;4.65;;;;;;;5.28;100.00;98754.97;4269112;80;28547;-75
2021/12/19 12:58:16;;;;;;;6.78;3.98;;;;;;;5.02;100.00;98761.39;4274318;80;28477;-76
2021/12/19 13:04:26;;;;;;;5.45;2.70;;;;;;;5.07;100.00;98749.32;4260242;80;28468;-76
2021/12/19 13:10:27;;;;;;;4.12;2.40;;;;;;;5.06;100.00;98732.50;4271831;80;28457;-78
2021/12/19 13:16:29;;;;;;;3.70;2.00;;;;;;;5.19;100.00;98722.38;4300700;80;28525;-77
2021/12/19 13:22:50;;;;;;;3.33;1.50;;;;;;;5.20;100.00;98741.83;4278124;82;28527;-76
2021/12/19 13:28:52;;;;;;;2.33;1.35;;;;;;;5.20;100.00;98741.83;4300897;80;28612;-75
2021/12/19 13:34:55;;;;;;;2.62;1.37;;;;;;;5.00;100.00;98725.33;4278804;80;28555;-78
2021/12/19 13:41:04;;;;;;;4.05;2.17;;;;;;;5.11;100.00;98715.90;4291793;80;28531;-76
2021/12/19 13:47:14;;;;;;;4.87;2.60;;;;;;;5.07;100.00;98690.69;4292214;80;28523;-77
2021/12/19 13:53:17;;;;;;;6.67;3.65;;;;;;;5.08;100.00;98679.81;4307632;80;28520;-75
2021/12/19 13:59:24;;;;;;;6.58;3.58;;;;;;;5.06;100.00;98673.88;4300092;80;28511;-76
2021/12/19 14:05:41;;;;;;;8.38;3.95;;;;;;;5.08;100.00;98671.81;4306514;80;28555;-75
2021/12/19 14:11:48;;;;;;;6.25;3.85;;;;;;;5.06;100.00;98666.41;4294182;80;28547;-75
2021/12/19 14:17:50;;;;;;;7.47;3.22;;;;;;;5.01;100.00;98666.48;4299472;80;28524;-78
2021/12/19 14:23:53;;;;;;;6.17;3.25;;;;;;;4.92;100.00;98662.91;4294167;81;28529;-76
2021/12/19 14:30:10;;;;;;;4.85;3.10;;;;;;;4.95;100.00;98658.50;4275976;80;28507;-77
2021/12/19 14:36:12;;;;;;;4.83;2.80;;;;;;;4.87;100.00;98638.20;4319301;80;28543;-78
2021/12/19 14:42:16;;;;;;;4.47;2.20;;;;;;;4.81;100.00;98642.51;4312541;80;28552;-76
2021/12/19 14:48:37;;;;;;;5.83;3.08;;;;;;;4.85;100.00;98625.61;4330812;80;28466;-75
2021/12/19 14:54:38;;;;;;;4.72;2.90;;;;;;;4.76;100.00;98623.64;4319509;80;28530;-77
2021/12/19 15:00:43;;;;;;;6.03;2.87;;;;;;;4.65;100.00;98613.59;4331874;80;28563;-74
2021/12/19 15:06:50;;;;;;;6.07;3.13;;;;;;;4.66;100.00;98634.70;4330056;80;28510;-75
2021/12/19 15:12:51;;;;;;;5.97;3.30;;;;;;;4.63;100.00;98607.65;4303813;80;28483;-75
2021/12/19 15:18:52;;;;;;;6.92;3.15;;;;;;;4.64;100.00;98618.11;4306709;80;28501;-74
2021/12/19 15:24:54;;;;;;;4.58;3.00;;;;;;;4.51;100.00;98611.41;4293322;80;28523;-74
2021/12/19 15:30:58;;;;;;;6.40;2.77;;;;;;;4.50;100.00;98621.26;4296504;80;28466;-75
2021/12/19 15:36:59;;;;;;;6.15;2.75;;;;;;;4.51;100.00;98611.41;4292794;80;28478;-74
2021/12/19 15:43:01;;;;;;;6.00;2.85;;;;;;;4.55;100.00;98606.01;4293614;80;28490;-75
2021/12/19 15:49:04;;;;;;;6.65;2.65;;;;;;;4.59;100.00;98589.42;4293704;80;28596;-74
2021/12/19 15:55:07;;;;;;;5.37;2.87;;;;;;;4.55;100.00;98596.16;4293772;80;28546;-76
2021/12/19 16:01:10;;;;;;;4.92;2.77;;;;;;;4.55;100.00;98604.68;4282125;80;28524;-75
2021/12/19 16:07:12;;;;;;;5.95;3.05;;;;;;;4.52;100.00;98596.58;4287743;80;28480;-77
2021/12/19 16:13:14;;;;;;;5.85;3.40;;;;;;;4.49;100.00;98598.81;4454159;78;28507;-76
2021/12/19 16:19:16;;;;;;;7.78;3.42;;;;;;;4.43;100.00;98586.64;4470489;77;28538;-75
2021/12/19 16:25:18;;;;;;;5.25;3.08;;;;;;;4.39;100.00;98593.90;4472300;77;28501;-75
2021/12/19 16:31:19;;;;;;;4.95;2.83;;;;;;;4.49;100.00;98578.35;4475428;77;28525;-74
2021/12/19 16:37:20;;;;;;;6.28;3.65;;;;;;;4.54;100.00;98560.44;4468018;77;28557;-75
2021/12/19 16:43:32;;;;;;;6.80;3.50;;;;;;;4.44;100.00;98556.33;4475526;77;28505;-75
2021/12/19 16:49:33;;;;;;;5.60;3.75;;;;;;;4.45;100.00;98549.15;4485223;77;28577;-74
2021/12/19 16:55:37;;;;;;;5.85;3.00;;;;;;;4.37;100.00;98538.69;4473237;77;28527;-75
2021/12/19 17:01:39;;;;;;;4.22;2.72;;;;;;;4.39;100.00;98523.36;4481479;77;28516;-75
2021/12/19 17:07:40;;;;;;;5.37;3.33;;;;;;;4.30;100.00;98502.76;4472867;77;28531;-77
2021/12/19 17:13:54;;;;;;;6.25;3.33;;;;;;;4.36;100.00;98493.14;4462830;77;28526;-75
2021/12/19 17:19:51;;;;;;;6.45;3.15;;;;;;;4.25;100.00;98502.03;4435546;78;28477;-74
2021/12/19 17:25:52;;;;;;;9.20;3.85;;;;;;;4.32;100.00;98496.71;4455436;78;28490;-76
2021/12/19 17:31:53;;;;;;;7.50;4.03;;;;;;;4.35;100.00;98502.15;4448109;78;28479;-75
2021/12/19 17:37:59;;;;;;;7.70;3.62;;;;;;;4.38;100.00;98490.59;4448664;78;28534;-75
2021/12/19 17:43:58;;;;;;;5.92;3.15;;;;;;;4.34;100.00;98472.07;4449763;78;28553;-76
2021/12/19 17:50:01;;;;;;;5.92;2.87;;;;;;;4.42;100.00;98471.04;4449434;78;28510;-77
2021/12/19 17:56:05;;;;;;;5.03;3.33;;;;;;;4.40;100.00;98459.78;4446183;78;28518;-77
2021/12/19 18:02:07;;;;;;;7.95;3.60;;;;;;;4.36;100.00;98451.39;4459648;78;28558;-78
2021/12/19 18:08:11;;;;;;;5.92;3.20;;;;;;;4.30;100.00;98480.97;4459329;78;28482;-76
2021/12/19 18:14:13;;;;;;;8.25;3.55;;;;;;;4.33;100.00;98475.23;4449678;78;28507;-76
2021/12/19 18:20:17;;;;;;;7.25;3.47;;;;;;;4.41;100.00;98460.89;4448618;78;28525;-80
2021/12/19 18:26:19;;;;;;;6.00;3.02;;;;;;;4.35;100.00;98459.56;4469967;78;29053;-78
2021/12/19 18:32:22;;;;;;;5.65;2.98;;;;;;;4.36;100.00;98451.39;4467473;78;28503;-75
2021/12/19 18:38:24;;;;;;;4.33;2.50;;;;;;;4.43;100.00;98448.22;4441907;78;28522;-78
2021/12/19 18:44:33;;;;;;;5.20;2.95;;;;;;;4.45;100.00;98443.50;4303891;81;28470;-78
2021/12/19 18:50:40;;;;;;;5.30;2.77;;;;;;;4.38;100.00;98445.34;4292594;80;28545;-76
2021/12/19 18:56:34;;;;;;;6.33;2.92;;;;;;;4.28;100.00;98446.27;4314882;80;28619;-78
2021/12/19 19:02:54;;;;;;;8.65;3.40;;;;;;;4.24;100.00;98444.52;4279042;82;28515;-80
2021/12/19 19:08:52;;;;;;;7.15;3.22;;;;;;;4.18;100.00;98452.00;4298798;80;28504;-77
